sensor_id;sensor_type;location;lat;lon;timestamp;pressure;altitude;pressure_sealevel;temperature;humidity
929;BME280;451;47.988;7.842;2023-04-26T00:05:11;98555.38;;;7.74;100.00
929;BME280;451;47.988;7.842;2023-04-26T00:14:16;98563.34;;;7.37;100.00
929;BME280;451;47.988;7.842;2023-04-26T00:23:19;98572.91;;;7.63;100.00
929;BME280;451;47.988;7.842;2023-04-26T00:32:23;98609.06;;;7.50;100.00
929;BME280;451;47.988;7.842;2023-04-26T00:41:26;98562.81;;;7.51;100.00
929;BME280;451;47.988;7.842;2023-04-26T00:50:31;98576.06;;;7.49;100.00
929;BME280;451;47.988;7.842;2023-04-26T00:59:34;98586.00;;;7.63;100.00
929;BME280;451;47.988;7.842;2023-04-26T01:08:39;98562.69;;;7.25;100.00
929;BME280;451;47.988;7.842;2023-04-26T01:17:45;98552.25;;;6.70;100.00
929;BME280;451;47.988;7.842;2023-04-26T01:26:49;98559.91;;;6.81;100.00
929;BME280;451;47.988;7.842;2023-04-26T01:35:53;98416.91;;;5.82;100.00
929;BME280;451;47.988;7.842;2023-04-26T01:44:59;98545.53;;;7.22;100.00
929;BME280;451;47.988;7.842;2023-04-26T01:54:22;98537.34;;;7.08;100.00
929;BME280;451;47.988;7.842;2023-04-26T02:03:26;98509.50;;;6.99;100.00
929;BME280;451;47.988;7.842;2023-04-26T02:12:29;98529.91;;;7.13;100.00
929;BME280;451;47.988;7.842;2023-04-26T02:21:49;98439.41;;;6.12;100.00
929;BME280;451;47.988;7.842;2023-04-26T02:30:52;98538.34;;;6.79;100.00
929;BME280;451;47.988;7.842;2023-04-26T02:39:59;98545.41;;;6.97;100.00
929;BME280;451;47.988;7.842;2023-04-26T02:49:02;98504.84;;;6.65;100.00
929;BME280;451;47.988;7.842;2023-04-26T02:58:07;98537.63;;;6.87;100.00
929;BME280;451;47.988;7.842;2023-04-26T03:07:10;98533.72;;;6.64;100.00
929;BME280;451;47.988;7.842;2023-04-26T03:16:17;98564.94;;;6.65;100.00
929;BME280;451;47.988;7.842;2023-04-26T03:25:21;98502.38;;;6.27;100.00
929;BME280;451;47.988;7.842;2023-04-26T03:34:25;98518.78;;;6.00;100.00
929;BME280;451;47.988;7.842;2023-04-26T03:43:29;98515.78;;;5.95;100.00
929;BME280;451;47.988;7.842;2023-04-26T03:52:36;98501.22;;;5.83;100.00
929;BME280;451;47.988;7.842;2023-04-26T04:01:40;98520.16;;;6.04;100.00
929;BME280;451;47.988;7.842;2023-04-26T04:10:44;98505.91;;;5.60;100.00
929;BME280;451;47.988;7.842;2023-04-26T04:19:47;98489.16;;;5.53;100.00
929;BME280;451;47.988;7.842;2023-04-26T04:28:52;98519.88;;;5.68;100.00
929;BME280;451;47.988;7.842;2023-04-26T04:37:56;98513.31;;;5.45;100.00
929;BME280;451;47.988;7.842;2023-04-26T04:47:01;98533.63;;;5.80;100.00
929;BME280;451;47.988;7.842;2023-04-26T04:56:05;98542.25;;;6.10;100.00
929;BME280;451;47.988;7.842;2023-04-26T05:05:11;98554.19;;;5.45;100.00
929;BME280;451;47.988;7.842;2023-04-26T05:14:14;98565.22;;;5.96;100.00
929;BME280;451;47.988;7.842;2023-04-26T05:23:18;98541.59;;;5.88;100.00
929;BME280;451;47.988;7.842;2023-04-26T05:32:22;98572.06;;;6.63;100.00
929;BME280;451;47.988;7.842;2023-04-26T05:41:37;98594.19;;;7.33;100.00
929;BME280;451;47.988;7.842;2023-04-26T05:50:40;98606.19;;;8.24;100.00
929;BME280;451;47.988;7.842;2023-04-26T05:59:45;98626.41;;;8.58;100.00
929;BME280;451;47.988;7.842;2023-04-26T06:08:49;98601.91;;;8.67;100.00
929;BME280;451;47.988;7.842;2023-04-26T06:17:53;98620.66;;;9.56;100.00
929;BME280;451;47.988;7.842;2023-04-26T06:26:56;98609.09;;;10.07;100.00
929;BME280;451;47.988;7.842;2023-04-26T06:36:01;98607.63;;;9.96;100.00
929;BME280;451;47.988;7.842;2023-04-26T06:45:05;98594.06;;;9.43;100.00
929;BME280;451;47.988;7.842;2023-04-26T06:54:12;98595.47;;;9.79;100.00
929;BME280;451;47.988;7.842;2023-04-26T07:03:15;98588.88;;;9.67;100.00
929;BME280;451;47.988;7.842;2023-04-26T07:12:19;98587.78;;;10.42;100.00
929;BME280;451;47.988;7.842;2023-04-26T07:21:22;98582.53;;;12.73;100.00
929;BME280;451;47.988;7.842;2023-04-26T07:30:27;98562.66;;;11.34;97.90
929;BME280;451;47.988;7.842;2023-04-26T07:39:33;98560.75;;;11.82;93.96
929;BME280;451;47.988;7.842;2023-04-26T07:48:38;98573.06;;;11.58;88.91
929;BME280;451;47.988;7.842;2023-04-26T07:57:41;98451.00;;;10.28;94.56
929;BME280;451;47.988;7.842;2023-04-26T08:06:47;98578.47;;;11.57;91.71
929;BME280;451;47.988;7.842;2023-04-26T08:15:50;98577.09;;;11.07;93.72
929;BME280;451;47.988;7.842;2023-04-26T08:24:54;98576.03;;;11.55;92.19
929;BME280;451;47.988;7.842;2023-04-26T08:33:57;98574.34;;;12.31;89.14
929;BME280;451;47.988;7.842;2023-04-26T08:43:02;98564.38;;;13.44;87.48
929;BME280;451;47.988;7.842;2023-04-26T08:52:07;98574.00;;;11.74;91.61
929;BME280;451;47.988;7.842;2023-04-26T09:01:14;98440.22;;;11.38;85.52
929;BME280;451;47.988;7.842;2023-04-26T09:10:19;98568.00;;;12.40;82.02
929;BME280;451;47.988;7.842;2023-04-26T09:19:35;98574.66;;;12.13;81.85
929;BME280;451;47.988;7.842;2023-04-26T09:28:38;98554.38;;;13.24;75.21
929;BME280;451;47.988;7.842;2023-04-26T09:37:50;98550.38;;;15.38;70.87
929;BME280;451;47.988;7.842;2023-04-26T09:47:01;98542.84;;;16.22;63.28
929;BME280;451;47.988;7.842;2023-04-26T09:56:09;98564.31;;;13.73;69.10
929;BME280;451;47.988;7.842;2023-04-26T10:05:13;98546.06;;;15.85;62.84
929;BME280;451;47.988;7.842;2023-04-26T10:14:17;98540.22;;;15.35;64.24
929;BME280;451;47.988;7.842;2023-04-26T10:23:22;98535.88;;;16.54;61.16
929;BME280;451;47.988;7.842;2023-04-26T10:32:28;98540.41;;;14.58;63.58
929;BME280;451;47.988;7.842;2023-04-26T10:41:34;98546.69;;;16.26;59.71
929;BME280;451;47.988;7.842;2023-04-26T10:51:06;98530.34;;;16.69;60.06
929;BME280;451;47.988;7.842;2023-04-26T11:00:27;98462.06;;;15.98;56.15
929;BME280;451;47.988;7.842;2023-04-26T11:09:35;98514.47;;;16.16;56.88
929;BME280;451;47.988;7.842;2023-04-26T11:18:41;98505.75;;;17.00;54.82
929;BME280;451;47.988;7.842;2023-04-26T11:27:45;98458.97;;;16.99;54.51
929;BME280;451;47.988;7.842;2023-04-26T11:36:50;98456.22;;;18.49;50.69
929;BME280;451;47.988;7.842;2023-04-26T11:45:59;98424.81;;;17.96;50.34
929;BME280;451;47.988;7.842;2023-04-26T11:55:03;98487.81;;;17.71;49.41
929;BME280;451;47.988;7.842;2023-04-26T12:04:09;98482.53;;;17.26;49.96
929;BME280;451;47.988;7.842;2023-04-26T12:13:12;98452.00;;;17.04;50.60
929;BME280;451;47.988;7.842;2023-04-26T12:22:19;98453.78;;;16.52;52.36
929;BME280;451;47.988;7.842;2023-04-26T12:31:23;98458.50;;;16.37;53.08
929;BME280;451;47.988;7.842;2023-04-26T12:40:28;98414.63;;;16.41;52.70
929;BME280;451;47.988;7.842;2023-04-26T12:49:31;98331.97;;;16.38;50.13
929;BME280;451;47.988;7.842;2023-04-26T12:58:36;98420.97;;;17.67;49.71
929;BME280;451;47.988;7.842;2023-04-26T13:07:41;98427.06;;;17.05;49.16
929;BME280;451;47.988;7.842;2023-04-26T13:16:46;98428.88;;;18.42;44.20
929;BME280;451;47.988;7.842;2023-04-26T13:25:49;98430.09;;;18.64;44.00
929;BME280;451;47.988;7.842;2023-04-26T13:34:53;98425.47;;;17.67;46.98
929;BME280;451;47.988;7.842;2023-04-26T13:43:57;98420.63;;;18.25;47.04
929;BME280;451;47.988;7.842;2023-04-26T13:53:02;98430.28;;;18.81;42.81
929;BME280;451;47.988;7.842;2023-04-26T14:02:06;98427.88;;;18.79;44.60
929;BME280;451;47.988;7.842;2023-04-26T14:11:10;98422.78;;;19.08;46.04
929;BME280;451;47.988;7.842;2023-04-26T14:20:14;98406.16;;;17.15;49.25
929;BME280;451;47.988;7.842;2023-04-26T14:29:19;98418.19;;;17.81;48.19
929;BME280;451;47.988;7.842;2023-04-26T14:38:22;98408.91;;;18.33;44.06
929;BME280;451;47.988;7.842;2023-04-26T14:47:27;98404.44;;;18.08;43.57
929;BME280;451;47.988;7.842;2023-04-26T14:56:33;98400.91;;;18.14;43.58
929;BME280;451;47.988;7.842;2023-04-26T15:05:37;98385.41;;;18.48;42.83
929;BME280;451;47.988;7.842;2023-04-26T15:14:40;98373.88;;;18.36;44.46
929;BME280;451;47.988;7.842;2023-04-26T15:23:44;98391.66;;;19.20;44.39
929;BME280;451;47.988;7.842;2023-04-26T15:32:48;98359.22;;;18.63;44.32
929;BME280;451;47.988;7.842;2023-04-26T15:41:53;98383.00;;;18.03;45.19
929;BME280;451;47.988;7.842;2023-04-26T15:50:56;98369.09;;;18.74;44.56
929;BME280;451;47.988;7.842;2023-04-26T16:00:00;98360.69;;;18.23;44.58
929;BME280;451;47.988;7.842;2023-04-26T16:09:06;98375.91;;;17.97;46.20
929;BME280;451;47.988;7.842;2023-04-26T16:18:13;98363.88;;;17.39;47.74
929;BME280;451;47.988;7.842;2023-04-26T16:27:17;98394.38;;;17.92;46.85
929;BME280;451;47.988;7.842;2023-04-26T16:36:23;98378.44;;;18.10;47.70
929;BME280;451;47.988;7.842;2023-04-26T16:45:26;98320.34;;;16.39;50.13
929;BME280;451;47.988;7.842;2023-04-26T16:54:30;98361.25;;;17.88;48.42
929;BME280;451;47.988;7.842;2023-04-26T17:03:33;98372.56;;;17.27;48.84
929;BME280;451;47.988;7.842;2023-04-26T17:12:38;98373.56;;;17.58;49.92
929;BME280;451;47.988;7.842;2023-04-26T17:21:41;98344.25;;;18.62;45.55
929;BME280;451;47.988;7.842;2023-04-26T17:30:45;98358.72;;;17.44;48.96
929;BME280;451;47.988;7.842;2023-04-26T17:39:49;98351.28;;;14.41;53.71
929;BME280;451;47.988;7.842;2023-04-26T17:48:53;98424.81;;;15.13;54.66
929;BME280;451;47.988;7.842;2023-04-26T17:57:57;98372.88;;;15.18;55.68
929;BME280;451;47.988;7.842;2023-04-26T18:07:03;98402.78;;;15.06;55.30
929;BME280;451;47.988;7.842;2023-04-26T18:16:07;98410.41;;;14.61;57.42
929;BME280;451;47.988;7.842;2023-04-26T18:25:13;98408.53;;;14.21;58.26
929;BME280;451;47.988;7.842;2023-04-26T18:34:16;98413.69;;;14.01;58.71
929;BME280;451;47.988;7.842;2023-04-26T18:43:21;98424.50;;;13.78;60.64
929;BME280;451;47.988;7.842;2023-04-26T18:52:24;98441.34;;;13.77;61.75
929;BME280;451;47.988;7.842;2023-04-26T19:01:28;98408.28;;;13.88;63.00
929;BME280;451;47.988;7.842;2023-04-26T19:10:31;98460.38;;;13.94;65.92
929;BME280;451;47.988;7.842;2023-04-26T19:19:35;98476.22;;;13.45;67.59
929;BME280;451;47.988;7.842;2023-04-26T19:28:39;98473.81;;;13.50;70.85
929;BME280;451;47.988;7.842;2023-04-26T19:37:43;98488.72;;;13.57;71.12
929;BME280;451;47.988;7.842;2023-04-26T19:46:46;98491.56;;;13.35;70.86
929;BME280;451;47.988;7.842;2023-04-26T19:55:50;98492.97;;;13.01;72.74
929;BME280;451;47.988;7.842;2023-04-26T20:04:53;98489.72;;;12.84;74.04
929;BME280;451;47.988;7.842;2023-04-26T20:13:58;98496.38;;;12.80;72.86
929;BME280;451;47.988;7.842;2023-04-26T20:23:01;98511.38;;;12.65;72.11
929;BME280;451;47.988;7.842;2023-04-26T20:32:06;98513.63;;;12.24;76.19
929;BME280;451;47.988;7.842;2023-04-26T20:41:09;98504.28;;;12.51;75.23
929;BME280;451;47.988;7.842;2023-04-26T20:50:13;98467.94;;;11.80;78.53
929;BME280;451;47.988;7.842;2023-04-26T20:59:17;98509.69;;;12.05;78.88
929;BME280;451;47.988;7.842;2023-04-26T21:08:30;98509.63;;;11.68;83.03
929;BME280;451;47.988;7.842;2023-04-26T21:17:34;98486.41;;;11.49;83.17
929;BME280;451;47.988;7.842;2023-04-26T21:26:38;98483.13;;;11.24;85.26
929;BME280;451;47.988;7.842;2023-04-26T21:35:41;98532.31;;;11.46;84.71
929;BME280;451;47.988;7.842;2023-04-26T21:44:46;98540.75;;;11.64;84.07
929;BME280;451;47.988;7.842;2023-04-26T21:53:49;98521.38;;;11.57;85.07
929;BME280;451;47.988;7.842;2023-04-26T22:02:53;98536.94;;;11.44;86.49
929;BME280;451;47.988;7.842;2023-04-26T22:11:56;98531.38;;;11.39;84.63
929;BME280;451;47.988;7.842;2023-04-26T22:21:01;98510.44;;;11.46;85.44
929;BME280;451;47.988;7.842;2023-04-26T22:30:05;98556.84;;;11.47;85.79
929;BME280;451;47.988;7.842;2023-04-26T22:39:10;98540.47;;;11.59;85.39
929;BME280;451;47.988;7.842;2023-04-26T22:48:13;98543.41;;;11.03;90.94
929;BME280;451;47.988;7.842;2023-04-26T22:57:18;98513.00;;;11.00;91.06
929;BME280;451;47.988;7.842;2023-04-26T23:06:22;98541.69;;;11.18;91.68
929;BME280;451;47.988;7.842;2023-04-26T23:15:28;98555.31;;;11.21;89.17
929;BME280;451;47.988;7.842;2023-04-26T23:24:32;98516.97;;;10.96;87.37
929;BME280;451;47.988;7.842;2023-04-26T23:33:37;98528.34;;;11.19;88.30
929;BME280;451;47.988;7.842;2023-04-26T23:42:40;98475.13;;;10.78;89.57
929;BME280;451;47.988;7.842;2023-04-26T23:51:44;98538.44;;;11.08;90.27
